High Tide — D5AA7 — position and weather

sailwx.info

Track history (hours):
 
Tides and Currents Weather Stations Pressure Air Temp Water Temp Dewpoint Dewpoint Depression Visibility Wind Speed Wind Dir Waves Ship Positions

High Tide

Last reported at 2014-Dec-21 00:10 UTC. Time now 2014-Dec-22 04:56 UTC.
Position N 01°24' E 103°58'.

Length 183 m; draft 8 m.

Type: Tanker. MMSI: 636015337.

Date/timePositionNaut miles runAvg speedWind from/ knotsBaromVisibWave heightAir tempDewpointWater temp
2014-Dec-21 00:10N 01°24' E 103°58'6 9.8
2014-Dec-20 23:33N 01°21' E 104°03'2 0.7
2014-Dec-20 21:29N 01°20' E 104°04'0 0.1
2014-Dec-20 20:23N 01°20' E 104°04'0 0.0
2014-Dec-20 19:29N 01°20' E 104°04'0 0.0
2014-Dec-20 17:05N 01°20' E 104°04'0 0.1
2014-Dec-20 16:17N 01°20' E 104°04'0 0.0
2014-Dec-20 15:05N 01°20' E 104°04'0 0.1
2014-Dec-20 14:05N 01°20' E 104°04'3 4.5
2014-Dec-20 13:30N 01°18' E 104°06'1 0.2
2014-Dec-20 08:30N 01°19' E 104°07'0 0.1
2014-Dec-20 07:09N 01°19' E 104°07'0 0.0
2014-Dec-20 06:06N 01°19' E 104°07'0 0.0
2014-Dec-20 00:30N 01°19' E 104°07'0 0.0
2014-Dec-19 22:24N 01°19' E 104°07'0 0.0
2014-Dec-19 21:30N 01°19' E 104°07'0 0.0
2014-Dec-19 20:12N 01°19' E 104°07'0 0.0
2014-Dec-19 19:30N 01°19' E 104°07'0 0.0
2014-Dec-19 12:18N 01°19' E 104°07'0 0.0
2014-Dec-19 08:28N 01°19' E 104°07'0 0.1
2014-Dec-19 07:31N 01°19' E 104°07'0 0.0
2014-Dec-19 04:28N 01°19' E 104°07'0 0.0
2014-Dec-18 20:05N 01°19' E 104°07'0 0.0
2014-Dec-18 18:17N 01°19' E 104°07'0 0.0
2014-Dec-18 15:29N 01°19' E 104°07'0 0.0
2014-Dec-18 03:05N 01°19' E 104°07'0 0.0
2014-Dec-18 00:23N 01°19' E 104°07'0 0.1
2014-Dec-17 23:05N 01°19' E 104°07'0 0.0
2014-Dec-17 22:29N 01°19' E 104°07'0 0.0
2014-Dec-17 21:11N 01°19' E 104°07'0 0.0
2014-Dec-17 20:17N 01°19' E 104°07'0 0.0
2014-Dec-17 19:23N 01°19' E 104°07'0 0.0
2014-Dec-17 18:17N 01°19' E 104°07'0 0.0
2014-Dec-17 16:29N 01°19' E 104°07'0 0.0
2014-Dec-17 15:29N 01°19' E 104°07'0 0.0
2014-Dec-17 14:08N 01°19' E 104°07'0 0.0
2014-Dec-17 13:21N 01°19' E 104°07'5 5.2
2014-Dec-17 12:25N 01°21' E 104°03'2 0.0
2014-Dec-15 08:27N 01°23' E 104°01'7 7.4
2014-Dec-15 07:27N 01°18' E 104°07'0 0.1
2014-Dec-15 06:33N 01°18' E 104°07'1 0.5
2014-Dec-15 05:30N 01°18' E 104°06'7 7.1
2014-Dec-15 04:33N 01°15' E 104°00'9 9.1
2014-Dec-15 03:33N 01°11' E 103°52'6612.7
2014-Dec-14 22:23N 01°36' E 102°51'2714.6
2014-Dec-14 20:32N 01°47' E 102°26'  
Track history (hours):
 
Tides and Currents Weather Stations Pressure Air Temp Water Temp Dewpoint Dewpoint Depression Visibility Wind Speed Wind Dir Waves Ship Positions

High Tide

Last reported at 2014-Dec-21 00:10 UTC. Time now 2014-Dec-22 04:56 UTC.
Position N 01°24' E 103°58'.

Length 183 m; draft 8 m.

Type: Tanker. MMSI: 636015337.

Date/timePositionNaut miles runAvg speedWind from/ knotsBaromVisibWave heightAir tempDewpointWater temp
2014-Dec-21 00:10N 01°24' E 103°58'6 9.8
2014-Dec-20 23:33N 01°21' E 104°03'2 0.7
2014-Dec-20 21:29N 01°20' E 104°04'0 0.1
2014-Dec-20 20:23N 01°20' E 104°04'0 0.0
2014-Dec-20 19:29N 01°20' E 104°04'0 0.0
2014-Dec-20 17:05N 01°20' E 104°04'0 0.1
2014-Dec-20 16:17N 01°20' E 104°04'0 0.0
2014-Dec-20 15:05N 01°20' E 104°04'0 0.1
2014-Dec-20 14:05N 01°20' E 104°04'3 4.5
2014-Dec-20 13:30N 01°18' E 104°06'1 0.2
2014-Dec-20 08:30N 01°19' E 104°07'0 0.1
2014-Dec-20 07:09N 01°19' E 104°07'0 0.0
2014-Dec-20 06:06N 01°19' E 104°07'0 0.0
2014-Dec-20 00:30N 01°19' E 104°07'0 0.0
2014-Dec-19 22:24N 01°19' E 104°07'0 0.0
2014-Dec-19 21:30N 01°19' E 104°07'0 0.0
2014-Dec-19 20:12N 01°19' E 104°07'0 0.0
2014-Dec-19 19:30N 01°19' E 104°07'0 0.0
2014-Dec-19 12:18N 01°19' E 104°07'0 0.0
2014-Dec-19 08:28N 01°19' E 104°07'0 0.1
2014-Dec-19 07:31N 01°19' E 104°07'0 0.0
2014-Dec-19 04:28N 01°19' E 104°07'0 0.0
2014-Dec-18 20:05N 01°19' E 104°07'0 0.0
2014-Dec-18 18:17N 01°19' E 104°07'0 0.0
2014-Dec-18 15:29N 01°19' E 104°07'0 0.0
2014-Dec-18 03:05N 01°19' E 104°07'0 0.0
2014-Dec-18 00:23N 01°19' E 104°07'0 0.1
2014-Dec-17 23:05N 01°19' E 104°07'0 0.0
2014-Dec-17 22:29N 01°19' E 104°07'0 0.0
2014-Dec-17 21:11N 01°19' E 104°07'0 0.0
2014-Dec-17 20:17N 01°19' E 104°07'0 0.0
2014-Dec-17 19:23N 01°19' E 104°07'0 0.0
2014-Dec-17 18:17N 01°19' E 104°07'0 0.0
2014-Dec-17 16:29N 01°19' E 104°07'0 0.0
2014-Dec-17 15:29N 01°19' E 104°07'0 0.0
2014-Dec-17 14:08N 01°19' E 104°07'0 0.0
2014-Dec-17 13:21N 01°19' E 104°07'5 5.2
2014-Dec-17 12:25N 01°21' E 104°03'2 0.0
2014-Dec-15 08:27N 01°23' E 104°01'7 7.4
2014-Dec-15 07:27N 01°18' E 104°07'0 0.1
2014-Dec-15 06:33N 01°18' E 104°07'1 0.5
2014-Dec-15 05:30N 01°18' E 104°06'7 7.1
2014-Dec-15 04:33N 01°15' E 104°00'9 9.1
2014-Dec-15 03:33N 01°11' E 103°52'6612.7
2014-Dec-14 22:23N 01°36' E 102°51'2714.6
2014-Dec-14 20:32N 01°47' E 102°26'  

Dump ship's entire track history